sensor_id;sensor_type;location;lat;lon;timestamp;pressure;altitude;pressure_sealevel;temperature;humidity
28008;BME280;15333;50.010;20.020;2023-02-28T00:02:49;100024.38;;;-0.86;78.51
28008;BME280;15333;50.010;20.020;2023-02-28T00:05:50;100024.38;;;-0.86;78.29
28008;BME280;15333;50.010;20.020;2023-02-28T00:08:51;100036.63;;;-0.88;78.56
28008;BME280;15333;50.010;20.020;2023-02-28T00:11:52;100029.63;;;-0.89;77.93
28008;BME280;15333;50.010;20.020;2023-02-28T00:14:53;100032.34;;;-0.95;78.41
28008;BME280;15333;50.010;20.020;2023-02-28T00:17:54;100040.28;;;-1.01;80.18
28008;BME280;15333;50.010;20.020;2023-02-28T00:20:55;100040.34;;;-1.07;80.45
28008;BME280;15333;50.010;20.020;2023-02-28T00:23:56;100033.41;;;-1.21;80.00
28008;BME280;15333;50.010;20.020;2023-02-28T00:26:57;100043.84;;;-1.11;79.65
28008;BME280;15333;50.010;20.020;2023-02-28T00:29:58;100041.28;;;-1.21;81.45
28008;BME280;15333;50.010;20.020;2023-02-28T00:32:58;100039.59;;;-1.25;81.67
28008;BME280;15333;50.010;20.020;2023-02-28T00:36:08;100044.97;;;-1.40;82.11
28008;BME280;15333;50.010;20.020;2023-02-28T00:39:12;100045.84;;;-1.41;81.08
28008;BME280;15333;50.010;20.020;2023-02-28T00:42:13;100038.84;;;-1.42;81.71
28008;BME280;15333;50.010;20.020;2023-02-28T00:45:14;100039.75;;;-1.47;82.35
28008;BME280;15333;50.010;20.020;2023-02-28T00:48:15;100040.72;;;-1.59;82.37
28008;BME280;15333;50.010;20.020;2023-02-28T00:51:16;100038.09;;;-1.62;81.94
28008;BME280;15333;50.010;20.020;2023-02-28T00:54:18;100042.56;;;-1.73;81.41
28008;BME280;15333;50.010;20.020;2023-02-28T00:57:21;100036.50;;;-1.84;83.60
28008;BME280;15333;50.010;20.020;2023-02-28T01:00:23;100035.69;;;-1.99;84.93
28008;BME280;15333;50.010;20.020;2023-02-28T01:03:25;100044.50;;;-2.12;85.10
28008;BME280;15333;50.010;20.020;2023-02-28T01:06:26;100042.78;;;-2.19;85.92
28008;BME280;15333;50.010;20.020;2023-02-28T01:09:27;100039.34;;;-2.22;87.37
28008;BME280;15333;50.010;20.020;2023-02-28T01:12:28;100044.56;;;-2.27;87.06
28008;BME280;15333;50.010;20.020;2023-02-28T01:15:28;100041.13;;;-2.41;87.05
28008;BME280;15333;50.010;20.020;2023-02-28T01:18:29;100037.69;;;-2.55;87.90
28008;BME280;15333;50.010;20.020;2023-02-28T01:21:31;100048.22;;;-2.64;88.93
28008;BME280;15333;50.010;20.020;2023-02-28T01:24:32;100046.47;;;-2.71;89.27
28008;BME280;15333;50.010;20.020;2023-02-28T01:27:33;100041.25;;;-2.73;90.63
28008;BME280;15333;50.010;20.020;2023-02-28T01:30:35;100043.84;;;-2.64;91.62
28008;BME280;15333;50.010;20.020;2023-02-28T01:33:36;100043.81;;;-2.58;91.92
28008;BME280;15333;50.010;20.020;2023-02-28T01:36:38;100042.91;;;-2.43;92.22
28008;BME280;15333;50.010;20.020;2023-02-28T01:39:39;100039.34;;;-2.30;91.51
28008;BME280;15333;50.010;20.020;2023-02-28T01:42:40;100039.31;;;-2.18;91.46
28008;BME280;15333;50.010;20.020;2023-02-28T01:45:41;100044.50;;;-2.12;90.72
28008;BME280;15333;50.010;20.020;2023-02-28T01:48:51;100046.28;;;-2.17;89.61
28008;BME280;15333;50.010;20.020;2023-02-28T01:51:54;100040.19;;;-2.14;89.24
28008;BME280;15333;50.010;20.020;2023-02-28T01:55:01;100031.31;;;-1.92;86.93
28008;BME280;15333;50.010;20.020;2023-02-28T01:58:05;100035.56;;;-1.74;84.92
28008;BME280;15333;50.010;20.020;2023-02-28T02:01:07;100032.91;;;-1.68;83.82
28008;BME280;15333;50.010;20.020;2023-02-28T02:04:08;100029.41;;;-1.67;83.53
28008;BME280;15333;50.010;20.020;2023-02-28T02:07:09;100030.31;;;-1.74;82.69
28008;BME280;15333;50.010;20.020;2023-02-28T02:10:20;100026.91;;;-1.85;83.55
28008;BME280;15333;50.010;20.020;2023-02-28T02:27:16;100026.25;;;-2.33;86.16
28008;BME280;15333;50.010;20.020;2023-02-28T02:30:38;100020.16;;;-2.38;86.80
28008;BME280;15333;50.010;20.020;2023-02-28T02:37:36;100027.19;;;-2.51;88.02
28008;BME280;15333;50.010;20.020;2023-02-28T02:40:40;100018.50;;;-2.57;89.09
28008;BME280;15333;50.010;20.020;2023-02-28T02:43:51;100017.63;;;-2.62;90.34
28008;BME280;15333;50.010;20.020;2023-02-28T02:46:59;100021.13;;;-2.66;91.22
28008;BME280;15333;50.010;20.020;2023-02-28T02:50:07;100020.28;;;-2.71;92.33
28008;BME280;15333;50.010;20.020;2023-02-28T02:53:10;100016.81;;;-2.83;93.14
28008;BME280;15333;50.010;20.020;2023-02-28T02:56:15;100013.34;;;-2.97;94.78
28008;BME280;15333;50.010;20.020;2023-02-28T02:59:21;100015.97;;;-3.00;96.11
28008;BME280;15333;50.010;20.020;2023-02-28T03:02:26;100001.16;;;-3.13;96.82
28008;BME280;15333;50.010;20.020;2023-02-28T03:05:35;100011.63;;;-3.22;97.17
28008;BME280;15333;50.010;20.020;2023-02-28T03:08:40;100015.13;;;-3.29;98.92
28008;BME280;15333;50.010;20.020;2023-02-28T03:11:41;100009.88;;;-3.53;98.94
28008;BME280;15333;50.010;20.020;2023-02-28T03:18:15;100013.38;;;-3.55;100.00
28008;BME280;15333;50.010;20.020;2023-02-28T03:24:32;100023.78;;;-3.88;100.00
28008;BME280;15333;50.010;20.020;2023-02-28T03:34:05;100035.94;;;-4.08;100.00
28008;BME280;15333;50.010;20.020;2023-02-28T03:37:12;100032.41;;;-4.25;100.00
28008;BME280;15333;50.010;20.020;2023-02-28T03:40:24;100038.47;;;-4.32;100.00
28008;BME280;15333;50.010;20.020;2023-02-28T03:43:30;100038.44;;;-4.42;100.00
28008;BME280;15333;50.010;20.020;2023-02-28T03:46:36;100038.41;;;-4.45;100.00
28008;BME280;15333;50.010;20.020;2023-02-28T03:56:09;100044.50;;;-4.55;100.00
28008;BME280;15333;50.010;20.020;2023-02-28T03:59:27;100047.06;;;-4.62;100.00
28008;BME280;15333;50.010;20.020;2023-02-28T04:02:29;100043.63;;;-4.49;100.00
28008;BME280;15333;50.010;20.020;2023-02-28T04:05:30;100047.09;;;-4.52;100.00
28008;BME280;15333;50.010;20.020;2023-02-28T04:08:32;100049.69;;;-4.58;100.00
28008;BME280;15333;50.010;20.020;2023-02-28T04:11:38;100047.91;;;-4.65;100.00
28008;BME280;15333;50.010;20.020;2023-02-28T04:14:40;100058.38;;;-4.62;100.00
28008;BME280;15333;50.010;20.020;2023-02-28T04:17:41;100054.91;;;-4.58;100.00
28008;BME280;15333;50.010;20.020;2023-02-28T04:20:43;100056.72;;;-4.48;100.00
28008;BME280;15333;50.010;20.020;2023-02-28T04:23:43;100061.06;;;-4.45;100.00
28008;BME280;15333;50.010;20.020;2023-02-28T04:26:47;100060.09;;;-4.64;100.00
28008;BME280;15333;50.010;20.020;2023-02-28T04:29:48;100054.81;;;-4.73;100.00
28008;BME280;15333;50.010;20.020;2023-02-28T04:32:49;100067.84;;;-4.79;100.00
28008;BME280;15333;50.010;20.020;2023-02-28T04:36:20;100070.47;;;-4.76;100.00
28008;BME280;15333;50.010;20.020;2023-02-28T04:39:23;100065.16;;;-4.91;100.00
28008;BME280;15333;50.010;20.020;2023-02-28T04:42:24;100070.34;;;-4.94;100.00
28008;BME280;15333;50.010;20.020;2023-02-28T04:45:25;100069.47;;;-4.95;100.00
28008;BME280;15333;50.010;20.020;2023-02-28T04:48:28;100066.88;;;-4.92;100.00
28008;BME280;15333;50.010;20.020;2023-02-28T04:51:30;100072.06;;;-4.95;100.00
28008;BME280;15333;50.010;20.020;2023-02-28T04:54:31;100079.94;;;-4.93;100.00
28008;BME280;15333;50.010;20.020;2023-02-28T04:57:32;100077.28;;;-4.99;100.00
28008;BME280;15333;50.010;20.020;2023-02-28T05:00:33;100073.81;;;-4.95;100.00
28008;BME280;15333;50.010;20.020;2023-02-28T05:03:34;100076.53;;;-4.76;100.00
28008;BME280;15333;50.010;20.020;2023-02-28T05:06:35;100079.22;;;-4.68;100.00
28008;BME280;15333;50.010;20.020;2023-02-28T05:09:36;100077.53;;;-4.60;100.00
28008;BME280;15333;50.010;20.020;2023-02-28T05:12:36;100077.53;;;-4.63;100.00
28008;BME280;15333;50.010;20.020;2023-02-28T05:15:38;100076.81;;;-4.30;100.00
28008;BME280;15333;50.010;20.020;2023-02-28T05:18:39;100069.94;;;-4.04;100.00
28008;BME280;15333;50.010;20.020;2023-02-28T05:21:54;100069.94;;;-4.02;100.00
28008;BME280;15333;50.010;20.020;2023-02-28T05:24:55;100086.47;;;-4.09;100.00
28008;BME280;15333;50.010;20.020;2023-02-28T05:27:56;100084.72;;;-4.10;100.00
28008;BME280;15333;50.010;20.020;2023-02-28T05:30:57;100087.34;;;-4.09;100.00
28008;BME280;15333;50.010;20.020;2023-02-28T05:33:58;100088.16;;;-4.26;100.00
28008;BME280;15333;50.010;20.020;2023-02-28T05:36:58;100089.84;;;-4.41;100.00
28008;BME280;15333;50.010;20.020;2023-02-28T05:39:59;100101.97;;;-4.46;100.00
28008;BME280;15333;50.010;20.020;2023-02-28T05:43:00;100106.34;;;-4.48;100.00
28008;BME280;15333;50.010;20.020;2023-02-28T05:46:03;100114.22;;;-4.42;100.00
28008;BME280;15333;50.010;20.020;2023-02-28T05:49:05;100109.91;;;-4.30;100.00
28008;BME280;15333;50.010;20.020;2023-02-28T05:52:06;100119.53;;;-4.20;100.00
28008;BME280;15333;50.010;20.020;2023-02-28T05:55:07;100121.25;;;-4.25;100.00
28008;BME280;15333;50.010;20.020;2023-02-28T05:58:08;100120.41;;;-4.21;100.00
28008;BME280;15333;50.010;20.020;2023-02-28T06:04:25;100124.88;;;-3.99;100.00
28008;BME280;15333;50.010;20.020;2023-02-28T06:07:25;100125.75;;;-3.89;100.00
28008;BME280;15333;50.010;20.020;2023-02-28T06:10:27;100117.97;;;-3.68;100.00
28008;BME280;15333;50.010;20.020;2023-02-28T06:13:27;100118.91;;;-3.51;100.00
28008;BME280;15333;50.010;20.020;2023-02-28T06:16:30;100129.38;;;-3.46;100.00
28008;BME280;15333;50.010;20.020;2023-02-28T06:19:31;100132.00;;;-3.45;100.00
28008;BME280;15333;50.010;20.020;2023-02-28T06:22:32;100132.88;;;-3.43;100.00
28008;BME280;15333;50.010;20.020;2023-02-28T06:25:33;100136.38;;;-3.44;100.00
28008;BME280;15333;50.010;20.020;2023-02-28T06:28:34;100137.25;;;-3.43;100.00
28008;BME280;15333;50.010;20.020;2023-02-28T06:31:35;100144.22;;;-3.50;100.00
28008;BME280;15333;50.010;20.020;2023-02-28T06:34:37;100135.47;;;-3.57;100.00
28008;BME280;15333;50.010;20.020;2023-02-28T06:37:37;100148.53;;;-3.61;100.00
28008;BME280;15333;50.010;20.020;2023-02-28T06:40:38;100144.19;;;-3.64;100.00
28008;BME280;15333;50.010;20.020;2023-02-28T06:43:41;100147.69;;;-3.56;100.00
28008;BME280;15333;50.010;20.020;2023-02-28T06:46:44;100151.16;;;-3.53;100.00
28008;BME280;15333;50.010;20.020;2023-02-28T06:49:45;100145.06;;;-3.52;100.00
28008;BME280;15333;50.010;20.020;2023-02-28T06:52:46;100144.22;;;-3.39;100.00
28008;BME280;15333;50.010;20.020;2023-02-28T06:55:47;100147.72;;;-3.31;100.00
28008;BME280;15333;50.010;20.020;2023-02-28T06:58:50;100152.97;;;-3.31;100.00
28008;BME280;15333;50.010;20.020;2023-02-28T07:01:51;100156.47;;;-3.23;100.00
28008;BME280;15333;50.010;20.020;2023-02-28T07:04:52;100168.69;;;-3.10;100.00
28008;BME280;15333;50.010;20.020;2023-02-28T07:07:53;100161.75;;;-2.99;100.00
28008;BME280;15333;50.010;20.020;2023-02-28T07:10:55;100165.22;;;-2.91;100.00
28008;BME280;15333;50.010;20.020;2023-02-28T07:13:57;100177.47;;;-2.87;100.00
28008;BME280;15333;50.010;20.020;2023-02-28T07:16:58;100173.09;;;-2.76;100.00
28008;BME280;15333;50.010;20.020;2023-02-28T07:19:59;100168.72;;;-2.66;100.00
28008;BME280;15333;50.010;20.020;2023-02-28T07:23:00;100178.34;;;-2.63;100.00
28008;BME280;15333;50.010;20.020;2023-02-28T07:26:01;100174.84;;;-2.59;99.96
28008;BME280;15333;50.010;20.020;2023-02-28T07:29:02;100175.69;;;-2.36;99.63
28008;BME280;15333;50.010;20.020;2023-02-28T07:32:03;100173.94;;;-2.28;99.27
28008;BME280;15333;50.010;20.020;2023-02-28T07:35:05;100177.41;;;-2.15;99.01
28008;BME280;15333;50.010;20.020;2023-02-28T07:38:06;100178.25;;;-2.00;98.25
28008;BME280;15333;50.010;20.020;2023-02-28T07:41:08;100185.13;;;-1.77;96.13
28008;BME280;15333;50.010;20.020;2023-02-28T07:44:10;100179.94;;;-1.86;94.66
28008;BME280;15333;50.010;20.020;2023-02-28T07:47:11;100173.75;;;-1.67;94.62
28008;BME280;15333;50.010;20.020;2023-02-28T07:50:15;100177.19;;;-1.50;92.90
28008;BME280;15333;50.010;20.020;2023-02-28T07:53:16;100179.66;;;-1.23;91.37
28008;BME280;15333;50.010;20.020;2023-02-28T07:56:17;100168.13;;;-1.00;88.96
28008;BME280;15333;50.010;20.020;2023-02-28T07:59:18;100162.88;;;-1.06;89.10
28008;BME280;15333;50.010;20.020;2023-02-28T08:02:19;100166.22;;;-0.80;89.57
28008;BME280;15333;50.010;20.020;2023-02-28T08:05:20;100167.69;;;-0.49;85.84
28008;BME280;15333;50.010;20.020;2023-02-28T08:08:21;100162.56;;;-0.64;83.40
28008;BME280;15333;50.010;20.020;2023-02-28T08:11:22;100162.34;;;-0.40;84.32
28008;BME280;15333;50.010;20.020;2023-02-28T08:14:23;100164.03;;;-0.31;82.33
28008;BME280;15333;50.010;20.020;2023-02-28T08:17:24;100159.41;;;-0.08;80.37
28008;BME280;15333;50.010;20.020;2023-02-28T08:20:26;100166.00;;;0.28;77.81
28008;BME280;15333;50.010;20.020;2023-02-28T08:23:27;100165.34;;;0.08;78.52
28008;BME280;15333;50.010;20.020;2023-02-28T08:26:28;100161.88;;;0.06;78.39
28008;BME280;15333;50.010;20.020;2023-02-28T08:29:29;100163.16;;;0.44;75.44
28008;BME280;15333;50.010;20.020;2023-02-28T08:32:32;100164.53;;;0.72;74.01
28008;BME280;15333;50.010;20.020;2023-02-28T08:35:35;100160.78;;;0.91;71.30
28008;BME280;15333;50.010;20.020;2023-02-28T08:38:37;100164.28;;;0.90;70.54
28008;BME280;15333;50.010;20.020;2023-02-28T08:41:38;100159.22;;;1.33;67.98
28008;BME280;15333;50.010;20.020;2023-02-28T08:44:39;100166.31;;;1.28;65.84
28008;BME280;15333;50.010;20.020;2023-02-28T08:47:41;100164.44;;;1.36;64.00
28008;BME280;15333;50.010;20.020;2023-02-28T08:50:42;100163.28;;;1.52;63.56
28008;BME280;15333;50.010;20.020;2023-02-28T08:53:44;100165.56;;;1.74;61.02
28008;BME280;15333;50.010;20.020;2023-02-28T08:56:46;100159.66;;;1.58;61.21
28008;BME280;15333;50.010;20.020;2023-02-28T08:59:50;100172.72;;;1.66;57.44
28008;BME280;15333;50.010;20.020;2023-02-28T09:02:51;100169.56;;;1.94;56.06
28008;BME280;15333;50.010;20.020;2023-02-28T09:05:58;100168.94;;;1.82;55.29
28008;BME280;15333;50.010;20.020;2023-02-28T09:08:59;100163.19;;;1.57;57.83
28008;BME280;15333;50.010;20.020;2023-02-28T09:12:03;100156.38;;;1.94;56.63
28008;BME280;15333;50.010;20.020;2023-02-28T09:15:04;100160.31;;;1.71;56.28
28008;BME280;15333;50.010;20.020;2023-02-28T09:18:05;100155.63;;;1.86;56.65
28008;BME280;15333;50.010;20.020;2023-02-28T09:21:08;100156.47;;;1.41;56.21
28008;BME280;15333;50.010;20.020;2023-02-28T09:24:09;100162.63;;;1.40;57.21
28008;BME280;15333;50.010;20.020;2023-02-28T09:27:12;100161.88;;;1.32;57.72
28008;BME280;15333;50.010;20.020;2023-02-28T09:30:13;100157.66;;;1.22;58.11
28008;BME280;15333;50.010;20.020;2023-02-28T09:33:17;100169.38;;;1.02;57.26
28008;BME280;15333;50.010;20.020;2023-02-28T09:36:22;100155.66;;;0.79;57.76
28008;BME280;15333;50.010;20.020;2023-02-28T09:39:24;100159.31;;;0.70;58.27
28008;BME280;15333;50.010;20.020;2023-02-28T09:42:31;100163.63;;;0.74;58.77
28008;BME280;15333;50.010;20.020;2023-02-28T09:45:36;100157.66;;;0.62;59.52
28008;BME280;15333;50.010;20.020;2023-02-28T09:48:44;100164.53;;;0.72;59.63
28008;BME280;15333;50.010;20.020;2023-02-28T09:51:58;100161.47;;;1.01;59.09
28008;BME280;15333;50.010;20.020;2023-02-28T09:55:22;100165.81;;;1.06;57.29
28008;BME280;15333;50.010;20.020;2023-02-28T09:58:54;100158.84;;;1.02;57.98
28008;BME280;15333;50.010;20.020;2023-02-28T10:02:09;100169.44;;;0.99;57.93
28008;BME280;15333;50.010;20.020;2023-02-28T10:05:51;100155.69;;;0.77;59.33
28008;BME280;15333;50.010;20.020;2023-02-28T10:09:07;100169.16;;;0.56;60.40
28008;BME280;15333;50.010;20.020;2023-02-28T10:12:15;100171.81;;;0.55;60.92
28008;BME280;15333;50.010;20.020;2023-02-28T10:15:17;100156.91;;;0.52;60.70
28008;BME280;15333;50.010;20.020;2023-02-28T10:18:22;100162.88;;;0.65;60.19
28008;BME280;15333;50.010;20.020;2023-02-28T10:21:55;100154.16;;;0.63;60.14
28008;BME280;15333;50.010;20.020;2023-02-28T10:24:57;100154.09;;;0.66;59.19
28008;BME280;15333;50.010;20.020;2023-02-28T10:28:09;100154.97;;;0.66;58.64
28008;BME280;15333;50.010;20.020;2023-02-28T10:31:15;100153.38;;;0.56;59.44
28008;BME280;15333;50.010;20.020;2023-02-28T10:34:18;100138.19;;;0.72;58.99
28008;BME280;15333;50.010;20.020;2023-02-28T10:37:19;100145.06;;;0.85;59.25
28008;BME280;15333;50.010;20.020;2023-02-28T10:43:22;100144.34;;;0.72;59.91
28008;BME280;15333;50.010;20.020;2023-02-28T10:46:24;100139.69;;;0.91;59.86
28008;BME280;15333;50.010;20.020;2023-02-28T10:49:28;100137.97;;;0.87;58.69
28008;BME280;15333;50.010;20.020;2023-02-28T10:52:37;100138.81;;;0.92;59.96
28008;BME280;15333;50.010;20.020;2023-02-28T10:55:38;100133.38;;;1.00;60.24
28008;BME280;15333;50.010;20.020;2023-02-28T10:58:55;100134.19;;;1.06;58.76
28008;BME280;15333;50.010;20.020;2023-02-28T11:01:56;100124.34;;;1.14;59.39
28008;BME280;15333;50.010;20.020;2023-02-28T11:04:58;100118.31;;;1.09;59.24
28008;BME280;15333;50.010;20.020;2023-02-28T11:08:18;100118.44;;;1.00;59.91
28008;BME280;15333;50.010;20.020;2023-02-28T11:11:20;100111.38;;;1.02;59.36
28008;BME280;15333;50.010;20.020;2023-02-28T11:14:25;100112.00;;;1.18;59.63
28008;BME280;15333;50.010;20.020;2023-02-28T11:17:29;100109.84;;;0.89;60.39
28008;BME280;15333;50.010;20.020;2023-02-28T11:20:33;100113.09;;;1.06;61.24
28008;BME280;15333;50.010;20.020;2023-02-28T11:23:36;100096.00;;;1.29;60.41
28008;BME280;15333;50.010;20.020;2023-02-28T11:26:46;100100.38;;;1.30;60.74
28008;BME280;15333;50.010;20.020;2023-02-28T11:29:49;100097.31;;;1.03;60.08
28008;BME280;15333;50.010;20.020;2023-02-28T11:32:50;100093.31;;;1.32;60.75
28008;BME280;15333;50.010;20.020;2023-02-28T11:35:52;100087.72;;;1.50;58.67
28008;BME280;15333;50.010;20.020;2023-02-28T11:38:55;100085.78;;;1.60;58.97
28008;BME280;15333;50.010;20.020;2023-02-28T11:45:53;100083.56;;;1.35;59.06
28008;BME280;15333;50.010;20.020;2023-02-28T12:13:29;100061.84;;;1.23;60.51
28008;BME280;15333;50.010;20.020;2023-02-28T12:20:27;100061.00;;;1.68;58.05
28008;BME280;15333;50.010;20.020;2023-02-28T12:24:29;100064.38;;;1.76;57.96
28008;BME280;15333;50.010;20.020;2023-02-28T12:27:09;100067.91;;;1.75;58.23
28008;BME280;15333;50.010;20.020;2023-02-28T12:30:17;100066.56;;;1.53;58.84
28008;BME280;15333;50.010;20.020;2023-02-28T12:33:22;100067.13;;;1.70;58.12
28008;BME280;15333;50.010;20.020;2023-02-28T12:36:25;100069.69;;;1.73;58.64
28008;BME280;15333;50.010;20.020;2023-02-28T12:39:35;100064.28;;;1.79;58.45
28008;BME280;15333;50.010;20.020;2023-02-28T12:42:40;100069.38;;;1.90;58.76
28008;BME280;15333;50.010;20.020;2023-02-28T12:46:07;100067.44;;;1.98;58.46
28008;BME280;15333;50.010;20.020;2023-02-28T12:49:25;100066.34;;;2.07;58.40
28008;BME280;15333;50.010;20.020;2023-02-28T12:55:59;100059.19;;;2.13;58.56
28008;BME280;15333;50.010;20.020;2023-02-28T13:09:13;100067.28;;;2.06;58.32
28008;BME280;15333;50.010;20.020;2023-02-28T13:12:16;100049.44;;;2.17;58.67
28008;BME280;15333;50.010;20.020;2023-02-28T13:15:23;100053.09;;;2.10;58.60
28008;BME280;15333;50.010;20.020;2023-02-28T13:18:34;100047.81;;;2.10;58.67
28008;BME280;15333;50.010;20.020;2023-02-28T13:21:43;100041.50;;;2.17;58.87
28008;BME280;15333;50.010;20.020;2023-02-28T13:24:48;100029.97;;;2.21;58.88
28008;BME280;15333;50.010;20.020;2023-02-28T13:27:54;100037.25;;;2.10;59.23
28008;BME280;15333;50.010;20.020;2023-02-28T13:31:03;100042.41;;;2.16;59.16
28008;BME280;15333;50.010;20.020;2023-02-28T13:34:11;100034.00;;;1.99;59.26
28008;BME280;15333;50.010;20.020;2023-02-28T13:40:30;100025.03;;;2.06;59.48
28008;BME280;15333;50.010;20.020;2023-02-28T13:50:24;100028.44;;;2.11;59.69
28008;BME280;15333;50.010;20.020;2023-02-28T13:53:44;100021.47;;;2.07;59.64
28008;BME280;15333;50.010;20.020;2023-02-28T13:57:04;100007.59;;;1.99;59.85
28008;BME280;15333;50.010;20.020;2023-02-28T14:03:57;100004.44;;;1.81;60.86
28008;BME280;15333;50.010;20.020;2023-02-28T14:07:04;100000.72;;;1.91;61.40
28008;BME280;15333;50.010;20.020;2023-02-28T14:10:08;100007.13;;;2.20;59.23
28008;BME280;15333;50.010;20.020;2023-02-28T14:16:35;99991.53;;;2.08;59.85
28008;BME280;15333;50.010;20.020;2023-02-28T14:19:37;99993.22;;;2.12;59.83
28008;BME280;15333;50.010;20.020;2023-02-28T14:30:00;99996.25;;;1.93;60.96
28008;BME280;15333;50.010;20.020;2023-02-28T14:36:35;99990.88;;;1.98;60.65
28008;BME280;15333;50.010;20.020;2023-02-28T14:39:41;99989.94;;;2.01;60.77
28008;BME280;15333;50.010;20.020;2023-02-28T14:42:48;99997.03;;;1.99;60.55
28008;BME280;15333;50.010;20.020;2023-02-28T14:45:58;100000.75;;;1.88;61.19
28008;BME280;15333;50.010;20.020;2023-02-28T14:49:00;99992.69;;;1.96;61.28
28008;BME280;15333;50.010;20.020;2023-02-28T14:52:22;100004.25;;;1.90;61.10
28008;BME280;15333;50.010;20.020;2023-02-28T14:55:28;99995.75;;;1.76;61.67
28008;BME280;15333;50.010;20.020;2023-02-28T14:58:32;100005.47;;;1.74;61.99
28008;BME280;15333;50.010;20.020;2023-02-28T15:01:33;100006.34;;;1.73;62.12
28008;BME280;15333;50.010;20.020;2023-02-28T15:04:34;100001.06;;;1.73;62.49
28008;BME280;15333;50.010;20.020;2023-02-28T15:07:36;100008.28;;;1.65;62.83
28008;BME280;15333;50.010;20.020;2023-02-28T15:10:37;99994.00;;;1.75;62.15
28008;BME280;15333;50.010;20.020;2023-02-28T15:13:53;100008.28;;;1.65;62.33
28008;BME280;15333;50.010;20.020;2023-02-28T15:17:00;100007.66;;;1.52;62.71
28008;BME280;15333;50.010;20.020;2023-02-28T15:20:02;100003.28;;;1.50;63.18
28008;BME280;15333;50.010;20.020;2023-02-28T15:23:04;100000.75;;;1.47;62.85
28008;BME280;15333;50.010;20.020;2023-02-28T15:26:05;99992.84;;;1.45;63.51
28008;BME280;15333;50.010;20.020;2023-02-28T15:29:13;100001.75;;;1.40;63.50
28008;BME280;15333;50.010;20.020;2023-02-28T15:32:40;100002.69;;;1.36;64.08
28008;BME280;15333;50.010;20.020;2023-02-28T15:35:42;99998.44;;;1.29;64.54
28008;BME280;15333;50.010;20.020;2023-02-28T15:38:43;100006.47;;;1.21;63.96
28008;BME280;15333;50.010;20.020;2023-02-28T15:41:44;100002.19;;;1.15;64.56
28008;BME280;15333;50.010;20.020;2023-02-28T15:44:45;100002.28;;;1.12;64.99
28008;BME280;15333;50.010;20.020;2023-02-28T15:47:47;100001.47;;;1.07;64.46
28008;BME280;15333;50.010;20.020;2023-02-28T15:50:51;99999.81;;;1.02;65.59
28008;BME280;15333;50.010;20.020;2023-02-28T15:57:04;100008.81;;;0.90;65.72
28008;BME280;15333;50.010;20.020;2023-02-28T16:00:14;100001.03;;;0.84;67.28
28008;BME280;15333;50.010;20.020;2023-02-28T16:03:44;100007.31;;;0.74;67.15
28008;BME280;15333;50.010;20.020;2023-02-28T16:06:47;100003.00;;;0.70;67.41
28008;BME280;15333;50.010;20.020;2023-02-28T16:10:00;100008.38;;;0.64;67.05
28008;BME280;15333;50.010;20.020;2023-02-28T16:13:02;100009.31;;;0.58;68.03
28008;BME280;15333;50.010;20.020;2023-02-28T16:16:03;100013.00;;;0.50;68.15
28008;BME280;15333;50.010;20.020;2023-02-28T16:19:07;100006.91;;;0.45;68.92
28008;BME280;15333;50.010;20.020;2023-02-28T16:22:09;100007.00;;;0.38;68.83
28008;BME280;15333;50.010;20.020;2023-02-28T16:25:14;100007.06;;;0.35;68.55
28008;BME280;15333;50.010;20.020;2023-02-28T16:28:22;100010.69;;;0.28;69.25
28008;BME280;15333;50.010;20.020;2023-02-28T16:31:24;100014.25;;;0.24;69.07
28008;BME280;15333;50.010;20.020;2023-02-28T16:34:28;100009.94;;;0.19;70.17
28008;BME280;15333;50.010;20.020;2023-02-28T16:37:29;100018.75;;;0.15;69.32
28008;BME280;15333;50.010;20.020;2023-02-28T16:40:34;100025.91;;;0.07;70.53
28008;BME280;15333;50.010;20.020;2023-02-28T16:43:35;100025.94;;;0.02;69.33
28008;BME280;15333;50.010;20.020;2023-02-28T16:46:36;100019.88;;;-0.03;69.89
28008;BME280;15333;50.010;20.020;2023-02-28T16:49:37;100026.97;;;-0.08;70.43
28008;BME280;15333;50.010;20.020;2023-02-28T16:52:38;100032.28;;;-0.11;70.80
28008;BME280;15333;50.010;20.020;2023-02-28T16:55:39;100030.59;;;-0.18;72.05
28008;BME280;15333;50.010;20.020;2023-02-28T16:58:40;100030.63;;;-0.21;71.43
28008;BME280;15333;50.010;20.020;2023-02-28T17:01:41;100035.94;;;-0.24;72.41
28008;BME280;15333;50.010;20.020;2023-02-28T17:04:42;100032.44;;;-0.26;73.04
28008;BME280;15333;50.010;20.020;2023-02-28T17:07:43;100029.88;;;-0.29;71.83
28008;BME280;15333;50.010;20.020;2023-02-28T17:10:45;100038.69;;;-0.35;72.31
28008;BME280;15333;50.010;20.020;2023-02-28T17:13:46;100032.69;;;-0.45;73.05
28008;BME280;15333;50.010;20.020;2023-02-28T17:16:47;100033.63;;;-0.52;73.69
28008;BME280;15333;50.010;20.020;2023-02-28T17:19:49;100033.84;;;-0.71;74.91
28008;BME280;15333;50.010;20.020;2023-02-28T17:22:50;100043.50;;;-0.75;75.35
28008;BME280;15333;50.010;20.020;2023-02-28T17:25:51;100042.75;;;-0.86;76.02
28008;BME280;15333;50.010;20.020;2023-02-28T17:28:56;100040.22;;;-0.95;77.67
28008;BME280;15333;50.010;20.020;2023-02-28T17:31:57;100039.28;;;-0.88;77.12
28008;BME280;15333;50.010;20.020;2023-02-28T17:34:58;100041.00;;;-0.87;76.41
28008;BME280;15333;50.010;20.020;2023-02-28T17:37:59;100040.97;;;-0.84;75.96
28008;BME280;15333;50.010;20.020;2023-02-28T17:41:00;100047.16;;;-0.88;76.23
28008;BME280;15333;50.010;20.020;2023-02-28T17:44:01;100035.78;;;-0.92;77.66
28008;BME280;15333;50.010;20.020;2023-02-28T17:47:02;100037.59;;;-0.98;77.36
28008;BME280;15333;50.010;20.020;2023-02-28T17:50:03;100042.03;;;-1.03;77.53
28008;BME280;15333;50.010;20.020;2023-02-28T17:53:04;100036.78;;;-1.06;78.30
28008;BME280;15333;50.010;20.020;2023-02-28T17:56:11;100035.91;;;-1.05;77.64